Spaceon02064 — ASD — position and weather

sailwx.info

Track history (hours):
 
Tides and Currents Weather Stations Pressure Air Temp Water Temp Dewpoint Dewpoint Depression Visibility Wind Speed Wind Dir Waves Ship Positions

Spaceon02064

Last reported at 2014-Oct-25 20:33 UTC. Time now 2014-Oct-25 20:42 UTC.
Position N 31°21' E 121°26'.

Length 6 m.

Type: Ship. MMSI: 200902064.

Date/timePositionNaut miles runAvg speedWind from/ knotsBaromVisibWave heightAir tempDewpointWater temp
2014-Oct-25 20:33N 31°21' E 121°26'3812126.6
2014-Oct-25 20:23N 37°42' E 121°09'381451.8
2014-Oct-25 19:32N 31°21' E 121°26'3811841.1
2014-Oct-25 19:20N 37°42' E 121°09'381494.5
2014-Oct-25 18:33N 31°21' E 121°26'38165396.7
2014-Oct-25 18:33N 37°42' E 121°14'364887.3
2014-Oct-25 18:08N 31°38' E 121°15'363623.7
2014-Oct-25 17:34N 37°42' E 121°20'38115752.4
2014-Oct-25 17:32N 31°21' E 121°26'379385.2
2014-Oct-25 16:33N 37°40' E 121°25'3798469.5
2014-Oct-25 16:30N 31°21' E 121°26'378395.7
2014-Oct-25 15:33N 37°39' E 121°23'3787603.6
2014-Oct-25 15:30N 31°21' E 121°26'377396.7
2014-Oct-25 14:33N 37°38' E 121°25'3778592.2
2014-Oct-25 14:30N 31°21' E 121°26'376390.2
2014-Oct-25 13:33N 37°37' E 121°27'37612548.6
2014-Oct-25 13:31N 31°21' E 121°26'0 0.0
2014-Oct-25 12:33N 31°21' E 121°26'37667750.6
2014-Oct-25 12:33N 37°37' E 121°27'3471911.8
2014-Oct-25 12:22N 31°57' E 120°03'8096.8
2014-Oct-25 11:33N 31°21' E 121°26'3824914.6
2014-Oct-25 11:28N 37°43' E 121°30'351385.7
2014-Oct-25 10:33N 31°57' E 120°16'70250704.7
2014-Oct-25 10:33N 31°21' E 121°26'38527181.0
2014-Oct-25 10:33N 37°46' E 121°28'351356.9
2014-Oct-25 09:33N 31°58' E 120°25'6476922.8
2014-Oct-25 09:33N 31°21' E 121°26'383275883.8
2014-Oct-25 09:33N 37°44' E 121°26'38124070.8
2014-Oct-25 09:32N 31°23' E 121°37'6 6.2
2014-Oct-25 08:33N 31°22' E 121°30'38276323.6
2014-Oct-25 08:33N 37°44' E 121°24'383275702.5
2014-Oct-25 08:33N 31°21' E 121°26'0 0.0
2014-Oct-25 07:33N 31°21' E 121°26'8456.5
2014-Oct-25 07:32N 31°17' E 121°34'38721117.2
2014-Oct-25 07:31N 37°44' E 121°28'1 0.6
2014-Oct-25 06:33N 37°45' E 121°28'38492113.4
2014-Oct-25 06:33N 31°21' E 121°26'824.7
2014-Oct-25 06:14N 31°17' E 121°34'811.4
2014-Oct-25 05:33N 31°21' E 121°26'38398508.6
2014-Oct-25 05:33N 37°44' E 121°25'3871873.1
2014-Oct-25 05:20N 31°17' E 121°34'7 8.8
2014-Oct-25 04:33N 31°22' E 121°28'3834333.7
2014-Oct-25 04:28N 37°44' E 121°27'3 3.0
2014-Oct-25 03:29N 37°46' E 121°25'3822560.8
2014-Oct-25 03:20N 31°24' E 121°31'384447.0
2014-Oct-25 02:28N 37°48' E 121°24'38451208.0
2014-Oct-25 02:28N 31°24' E 121°31'383418.0
2014-Oct-25 01:33N 37°48' E 121°28'38314085.0
2014-Oct-25 01:31N 31°24' E 121°31'383377.9
2014-Oct-25 00:30N 37°48' E 121°23'3803521.6
2014-Oct-25 00:24N 31°28' E 121°26'378175.7
2014-Oct-24 22:15N 37°46' E 121°09'3695922.7
2014-Oct-24 22:11N 31°37' E 121°15'4 6.4
2014-Oct-24 21:31N 31°40' E 121°12'5 5.4
2014-Oct-24 20:32N 31°43' E 121°07'4 4.0
2014-Oct-24 19:30N 31°45' E 121°02'0 0.1
2014-Oct-24 18:11N 31°46' E 121°02'0 0.1
2014-Oct-24 17:33N 31°46' E 121°02'0 0.1
2014-Oct-24 16:31N 31°46' E 121°02'39186.1
2014-Oct-24 16:19N 31°17' E 121°34'0 0.0
2014-Oct-24 15:29N 31°17' E 121°34'3852054.7
2014-Oct-24 15:17N 37°42' E 121°09'35529738.8
2014-Oct-24 15:17N 31°46' E 120°59'165226.3
2014-Oct-24 14:33N 34°29' E 120°27'19528095.2
2014-Oct-24 14:33N 37°40' E 121°15'8 8.4
2014-Oct-24 13:33N 37°43' E 121°25'1991325.0
2014-Oct-24 13:24N 34°29' E 120°27'152445.9
2014-Oct-24 13:04N 31°58' E 120°50'3 6.2
2014-Oct-24 12:33N 32°00' E 120°47'344247336.3
2014-Oct-24 12:33N 37°42' E 121°28'3 3.4
2014-Oct-24 11:32N 37°42' E 121°32'34546036.8
2014-Oct-24 11:32N 31°60' E 120°39'6 5.9
2014-Oct-24 10:33N 32°01' E 120°33'34682958.5
2014-Oct-24 10:33N 37°43' E 121°32'2011663.2
2014-Oct-24 10:26N 34°29' E 120°28'147168.2
2014-Oct-24 09:33N 32°02' E 120°27'34695711.5
2014-Oct-24 09:33N 37°44' E 121°28'3 3.4
2014-Oct-24 08:33N 37°44' E 121°24'34878305.2
2014-Oct-24 08:33N 31°60' E 120°23'2 1.7
2014-Oct-24 07:33N 31°59' E 120°21'34996577.5
2014-Oct-24 07:33N 37°44' E 121°19'3881773.0
2014-Oct-24 07:20N 31°17' E 121°34'7595.9
2014-Oct-24 06:33N 31°59' E 120°21'34896413.8
2014-Oct-24 06:33N 37°44' E 121°20'348349.4
2014-Oct-24 05:33N 31°59' E 120°22'3469500.7
2014-Oct-24 05:31N 37°42' E 121°12'346358.9
2014-Oct-24 04:33N 31°59' E 120°22'74535.1
2014-Oct-24 04:25N 31°18' E 121°34'7587.2
2014-Oct-24 03:33N 31°58' E 120°19'7 6.6
2014-Oct-24 02:33N 31°56' E 120°11'80178.8
2014-Oct-24 02:06N 31°18' E 121°34'86156.1
2014-Oct-24 01:33N 31°57' E 120°04'3488308.2
2014-Oct-24 01:30N 37°42' E 121°09'0 0.0
2014-Oct-24 00:33N 37°42' E 121°09'0 0.0
2014-Oct-23 23:33N 37°42' E 121°09'0 0.0
2014-Oct-23 22:12N 37°42' E 121°09'5 7.9
2014-Oct-23 21:32N 37°42' E 121°15'38434593.5
2014-Oct-23 21:31N 31°18' E 121°34'383397.2
2014-Oct-23 20:33N 37°41' E 121°19'3835560.9
2014-Oct-23 20:29N 31°18' E 121°34'382410.4
2014-Oct-23 19:33N 37°40' E 121°24'38229279.4
2014-Oct-23 19:32N 31°18' E 121°34'382387.0
2014-Oct-23 18:33N 37°40' E 121°24'3821367.3
2014-Oct-23 18:16N 31°18' E 121°34'383531.8
2014-Oct-23 17:33N 37°40' E 121°24'38320571.8
2014-Oct-23 17:32N 31°18' E 121°34'384390.8
2014-Oct-23 16:33N 37°41' E 121°20'3843097.7
2014-Oct-23 16:26N 31°18' E 121°34'0 0.0
2014-Oct-23 15:33N 31°18' E 121°34'3863461.0
2014-Oct-23 15:26N 37°43' E 121°16'386431.3
2014-Oct-23 14:33N 31°18' E 121°34'3858155.9
2014-Oct-23 14:30N 37°43' E 121°18'3 3.5
2014-Oct-23 13:32N 37°42' E 121°23'3855896.1
2014-Oct-23 13:28N 31°18' E 121°34'385418.8
2014-Oct-23 12:33N 37°42' E 121°27'3 3.2
2014-Oct-23 11:33N 37°42' E 121°31'1 0.6
2014-Oct-23 10:32N 37°42' E 121°31'3 3.3
2014-Oct-23 09:33N 37°39' E 121°31'1 1.2
2014-Oct-23 08:33N 37°40' E 121°31'383382.8
2014-Oct-23 07:33N 31°18' E 121°34'3831378274.1
2014-Oct-23 07:33N 37°40' E 121°31'5 5.3
2014-Oct-23 06:31N 37°46' E 121°30'38810920.4
2014-Oct-23 06:29N 31°18' E 121°34'388416.7
2014-Oct-23 05:33N 37°46' E 121°27'3 3.3
2014-Oct-23 04:33N 37°46' E 121°23'4 3.4
2014-Oct-23 03:27N 37°45' E 121°19'7 8.3
2014-Oct-23 02:33N 37°42' E 121°10'3871590.3
2014-Oct-23 02:19N 31°15' E 121°31'3 4.0
2014-Oct-23 01:28N 31°18' E 121°34'5 5.4
2014-Oct-23 00:31N 31°22' E 121°30'380270.1
2014-Oct-22 23:07N 37°42' E 121°09'0 0.0
2014-Oct-22 22:25N 37°42' E 121°09'38511538.3
2014-Oct-22 22:23N 31°18' E 121°34'0 0.0
2014-Oct-22 21:25N 31°18' E 121°34'38562939.3
2014-Oct-22 21:25N 37°42' E 121°09'385422.4
2014-Oct-22 20:30N 31°18' E 121°34'38510178.6
2014-Oct-22 20:28N 37°42' E 121°09'385409.2
2014-Oct-22 19:31N 31°18' E 121°34'3892350.1
2014-Oct-22 19:21N 37°46' E 121°16'389485.7
2014-Oct-22 18:33N 31°18' E 121°34'38923322.6
2014-Oct-22 18:32N 37°46' E 121°18'3 3.5
2014-Oct-22 17:33N 37°47' E 121°22'3892786.7
2014-Oct-22 17:25N 31°18' E 121°34'392455.3
2014-Oct-22 16:33N 37°49' E 121°26'365159.1
2014-Oct-22 14:16N 31°44' E 121°04'37337.9
2014-Oct-22 14:09N 31°18' E 121°34'0 0.0
2014-Oct-22 13:33N 31°18' E 121°34'37761.8
2014-Oct-22 13:30N 31°44' E 121°04'3736.5
2014-Oct-22 12:30N 31°18' E 121°34'0 0.0
2014-Oct-22 11:11N 31°18' E 121°34'0 0.0
2014-Oct-22 10:31N 31°18' E 121°34'52207.6
2014-Oct-22 10:16N 31°56' E 120°52'4 5.9
2014-Oct-22 09:31N 31°59' E 120°50'563421.1
2014-Oct-22 09:30N 31°18' E 121°34'396417.5
2014-Oct-22 08:33N 37°54' E 121°30'39611790.6
2014-Oct-22 08:31N 31°18' E 121°34'0 0.0
2014-Oct-22 07:33N 31°18' E 121°34'394337.6
2014-Oct-22 06:23N 37°52' E 121°30'3942377.7
2014-Oct-22 06:13N 31°18' E 121°34'0 0.0
2014-Oct-22 05:22N 31°18' E 121°34'0 0.0
2014-Oct-22 01:33N 31°18' E 121°34'390303.7
2014-Oct-22 00:16N 37°47' E 121°14'390536.5
2014-Oct-21 23:32N 31°18' E 121°34'38526161.3
2014-Oct-21 23:31N 37°42' E 121°10'385380.1
2014-Oct-21 22:31N 31°18' E 121°34'3855583.0
2014-Oct-21 22:26N 37°42' E 121°09'385428.5
2014-Oct-21 21:33N 31°18' E 121°34'0 0.0
2014-Oct-21 20:30N 31°18' E 121°34'0 0.1
2014-Oct-21 19:33N 31°18' E 121°34'0 0.0
2014-Oct-21 18:31N 31°18' E 121°34'0 0.0
2014-Oct-21 17:33N 31°18' E 121°34'0 0.0
2014-Oct-21 16:33N 31°18' E 121°34'0 0.0
2014-Oct-21 15:33N 31°18' E 121°34'5 4.7
2014-Oct-21 14:32N 31°15' E 121°29'51011.5
2014-Oct-21 14:32N 31°18' E 121°34'0 0.0
2014-Oct-21 13:33N 31°18' E 121°34'0 3.4
2014-Oct-21 13:27N 31°17' E 121°34'4 4.1
2014-Oct-21 12:33N 31°21' E 121°32'384.8
2014-Oct-21 12:31N 31°18' E 121°34'6 6.1
2014-Oct-21 11:32N 31°23' E 121°30'6645.9
2014-Oct-21 11:32N 31°18' E 121°34'6 6.6
2014-Oct-21 10:33N 31°24' E 121°31'690.6
2014-Oct-21 10:29N 31°18' E 121°34'7 8.0
2014-Oct-21 09:33N 31°25' E 121°31'7103.9
2014-Oct-21 09:29N 31°18' E 121°34'7076.2
2014-Oct-21 08:33N 31°58' E 120°27'703823.3
2014-Oct-21 08:32N 31°18' E 121°34'7070.5
2014-Oct-21 07:33N 32°02' E 120°31'701186.1
2014-Oct-21 07:30N 31°18' E 121°34'0 0.1
2014-Oct-21 06:33N 31°18' E 121°34'634693.1
2014-Oct-21 06:32N 32°00' E 120°40'6363.4
2014-Oct-21 05:33N 31°18' E 121°34'0 0.1
2014-Oct-21 04:33N 31°18' E 121°34'0 0.0
2014-Oct-21 03:33N 31°18' E 121°34'0 0.0
2014-Oct-21 02:27N 31°18' E 121°34'0 0.0
2014-Oct-21 01:33N 31°18' E 121°34'62383.5
2014-Oct-21 01:23N 32°02' E 120°43'6271.3
2014-Oct-21 00:31N 31°18' E 121°34'1349.1
2014-Oct-21 00:15N 31°29' E 121°27'1317.7
2014-Oct-20 23:32N 31°18' E 121°34'81540.6
2014-Oct-20 23:31N 31°25' E 121°31'7 6.5
2014-Oct-20 22:30N 31°19' E 121°34'2 3.8
2014-Oct-20 22:05N 31°18' E 121°34'0 0.0
2014-Oct-20 20:10N 31°18' E 121°34'0 0.0
2014-Oct-20 18:28N 31°18' E 121°34'0 0.0
2014-Oct-20 17:04N 31°18' E 121°34'0 0.1
2014-Oct-20 16:32N 31°18' E 121°34'0 0.0
2014-Oct-20 15:32N 31°18' E 121°34'62731.5
2014-Oct-20 15:27N 32°04' E 120°45'6256.7
2014-Oct-20 14:22N 31°18' E 121°34'62386.0
2014-Oct-20 14:12N 32°04' E 120°45'6295.3
2014-Oct-20 13:33N 31°18' E 121°34'0 0.0
2014-Oct-20 12:22N 31°18' E 121°34'0 0.1
2014-Oct-20 11:33N 31°18' E 121°34'0 0.0
2014-Oct-20 10:14N 31°18' E 121°34'1012.0
2014-Oct-20 09:24N 31°27' E 121°30'1037.8
2014-Oct-20 09:08N 31°18' E 121°34'610.2
2014-Oct-20 08:31N 31°23' E 121°30'4223359.3
2014-Oct-20 08:24N 24°47' E 118°46'417207.9
2014-Oct-20 06:23N 31°17' E 121°34'0 0.0
2014-Oct-20 04:12N 31°17' E 121°34'0 0.0
2014-Oct-20 03:22N 31°17' E 121°34'0 0.0
2014-Oct-20 02:32N 31°17' E 121°34'0 0.0
2014-Oct-20 01:16N 31°17' E 121°34'0 0.0
2014-Oct-20 00:08N 31°17' E 121°34'1220.4
2014-Oct-19 23:33N 31°28' E 121°28'5 4.7
2014-Oct-19 22:33N 31°23' E 121°30'7 6.7
2014-Oct-19 21:33N 31°17' E 121°34'386120.4
2014-Oct-19 18:21N 37°43' E 121°14'2 2.1
2014-Oct-19 17:33N 37°42' E 121°15'3451867.3
2014-Oct-19 17:22N 31°60' E 120°23'344423.3
2014-Oct-19 16:33N 37°41' E 121°19'34143819.5
2014-Oct-19 16:33N 32°02' E 120°28'340339.8
2014-Oct-19 15:33N 37°40' E 121°24'4 3.5
2014-Oct-19 14:33N 37°39' E 121°28'3 3.3
2014-Oct-19 13:32N 37°40' E 121°32'2 2.2
2014-Oct-19 12:33N 37°42' E 121°31'4 4.2
2014-Oct-19 11:31N 37°46' E 121°28'0 0.4
2014-Oct-19 10:33N 37°46' E 121°28'9 8.8
2014-Oct-19 09:33N 37°39' E 121°21'9 9.3
2014-Oct-19 08:33N 37°42' E 121°10'3851433.1
2014-Oct-19 08:17N 31°17' E 121°34'385470.8
2014-Oct-19 07:28N 37°42' E 121°09'385420.9
2014-Oct-19 06:33N 31°17' E 121°34'2 2.4
2014-Oct-19 05:33N 31°19' E 121°33'5 4.7
2014-Oct-19 04:33N 31°23' E 121°30'6 6.0
2014-Oct-19 03:29N 31°22' E 121°38'3436.8
2014-Oct-19 02:33N 31°44' E 121°06'35884.3
2014-Oct-18 22:19N 37°42' E 121°09'0 0.0
2014-Oct-18 21:18N 37°42' E 121°09'5 6.0
2014-Oct-18 20:32N 37°42' E 121°15'3 3.2
2014-Oct-18 19:33N 37°41' E 121°18'3 3.3
2014-Oct-18 18:33N 37°41' E 121°22'3 3.3
2014-Oct-18 17:33N 37°40' E 121°26'3 2.8
2014-Oct-18 16:33N 37°41' E 121°29'4 3.9
2014-Oct-18 15:32N 37°45' E 121°29'6 5.7
2014-Oct-18 14:33N 37°51' E 121°28'3 2.8
2014-Oct-18 13:30N 37°49' E 121°31'3 3.5
2014-Oct-18 12:31N 37°48' E 121°35'1 0.7
2014-Oct-18 11:33N 37°48' E 121°35'3936905.3
2014-Oct-18 11:30N 31°14' E 121°29'393412.9
2014-Oct-18 10:33N 37°48' E 121°30'3921577.0
2014-Oct-18 10:18N 31°15' E 121°33'392528.0
2014-Oct-18 09:33N 37°48' E 121°25'3911021.4
2014-Oct-18 09:10N 31°17' E 121°34'390623.4
2014-Oct-18 08:33N 37°47' E 121°18'9 9.2
2014-Oct-18 07:33N 37°42' E 121°09'3851713.5
2014-Oct-18 07:19N 31°17' E 121°34'4 0.5
2014-Oct-18 00:05N 31°15' E 121°31'388148.7
2014-Oct-17 21:29N 37°42' E 121°10'6 6.6
2014-Oct-17 20:30N 37°45' E 121°18'3 3.6
2014-Oct-17 19:33N 37°44' E 121°22'2 1.5
2014-Oct-17 18:33N 37°42' E 121°23'3 3.5
2014-Oct-17 17:33N 37°41' E 121°27'2 2.4
2014-Oct-17 16:33N 37°41' E 121°24'2 1.7
2014-Oct-17 15:33N 37°41' E 121°26'1 0.5
2014-Oct-17 14:33N 37°40' E 121°27'1 0.5
2014-Oct-17 13:34N 37°40' E 121°27'3 2.8
2014-Oct-17 12:33N 37°40' E 121°24'3 3.3
2014-Oct-17 11:34N 37°38' E 121°27'1 0.7
2014-Oct-17 10:33N 37°38' E 121°28'7 6.9
2014-Oct-17 09:34N 37°40' E 121°20'9 8.1
2014-Oct-17 08:27N 37°42' E 121°09'34048.4
2014-Oct-17 01:26N 32°02' E 120°44'34053.5
2014-Oct-16 19:04N 37°42' E 121°09'3 5.0
2014-Oct-16 18:27N 37°43' E 121°12'3 3.1
2014-Oct-16 17:33N 37°43' E 121°15'3 3.0
2014-Oct-16 16:33N 37°42' E 121°19'3 3.1
2014-Oct-16 15:33N 37°41' E 121°23'3 3.0
2014-Oct-16 14:33N 37°40' E 121°26'3 3.1
2014-Oct-16 13:33N 37°40' E 121°30'3 3.1
2014-Oct-16 12:33N 37°39' E 121°34'1 1.2
2014-Oct-16 11:33N 37°39' E 121°33'4 4.0
2014-Oct-16 10:33N 37°39' E 121°28'47215873.9
2014-Oct-16 10:31N 29°48' E 122°05'475477.7
2014-Oct-16 09:32N 37°42' E 121°23'3611183.7
2014-Oct-16 09:13N 31°41' E 121°11'361538.8
2014-Oct-16 08:33N 37°42' E 121°11'4655309.4
2014-Oct-16 08:28N 29°59' E 122°02'465477.7
2014-Oct-16 07:30N 37°42' E 121°09'0 0.0
2014-Oct-16 06:15N 37°42' E 121°09'0 0.0
2014-Oct-16 05:12N 37°42' E 121°09'0 0.0
2014-Oct-16 04:33N 37°42' E 121°09'  
Track history (hours):
 
Tides and Currents Weather Stations Pressure Air Temp Water Temp Dewpoint Dewpoint Depression Visibility Wind Speed Wind Dir Waves Ship Positions

Spaceon02064

Last reported at 2014-Oct-25 20:33 UTC. Time now 2014-Oct-25 20:42 UTC.
Position N 31°21' E 121°26'.

Length 6 m.

Type: Ship. MMSI: 200902064.

Date/timePositionNaut miles runAvg speedWind from/ knotsBaromVisibWave heightAir tempDewpointWater temp
2014-Oct-25 20:33N 31°21' E 121°26'3812126.6
2014-Oct-25 20:23N 37°42' E 121°09'381451.8
2014-Oct-25 19:32N 31°21' E 121°26'3811841.1
2014-Oct-25 19:20N 37°42' E 121°09'381494.5
2014-Oct-25 18:33N 31°21' E 121°26'38165396.7
2014-Oct-25 18:33N 37°42' E 121°14'364887.3
2014-Oct-25 18:08N 31°38' E 121°15'363623.7
2014-Oct-25 17:34N 37°42' E 121°20'38115752.4
2014-Oct-25 17:32N 31°21' E 121°26'379385.2
2014-Oct-25 16:33N 37°40' E 121°25'3798469.5
2014-Oct-25 16:30N 31°21' E 121°26'378395.7
2014-Oct-25 15:33N 37°39' E 121°23'3787603.6
2014-Oct-25 15:30N 31°21' E 121°26'377396.7
2014-Oct-25 14:33N 37°38' E 121°25'3778592.2
2014-Oct-25 14:30N 31°21' E 121°26'376390.2
2014-Oct-25 13:33N 37°37' E 121°27'37612548.6
2014-Oct-25 13:31N 31°21' E 121°26'0 0.0
2014-Oct-25 12:33N 31°21' E 121°26'37667750.6
2014-Oct-25 12:33N 37°37' E 121°27'3471911.8
2014-Oct-25 12:22N 31°57' E 120°03'8096.8
2014-Oct-25 11:33N 31°21' E 121°26'3824914.6
2014-Oct-25 11:28N 37°43' E 121°30'351385.7
2014-Oct-25 10:33N 31°57' E 120°16'70250704.7
2014-Oct-25 10:33N 31°21' E 121°26'38527181.0
2014-Oct-25 10:33N 37°46' E 121°28'351356.9
2014-Oct-25 09:33N 31°58' E 120°25'6476922.8
2014-Oct-25 09:33N 31°21' E 121°26'383275883.8
2014-Oct-25 09:33N 37°44' E 121°26'38124070.8
2014-Oct-25 09:32N 31°23' E 121°37'6 6.2
2014-Oct-25 08:33N 31°22' E 121°30'38276323.6
2014-Oct-25 08:33N 37°44' E 121°24'383275702.5
2014-Oct-25 08:33N 31°21' E 121°26'0 0.0
2014-Oct-25 07:33N 31°21' E 121°26'8456.5
2014-Oct-25 07:32N 31°17' E 121°34'38721117.2
2014-Oct-25 07:31N 37°44' E 121°28'1 0.6
2014-Oct-25 06:33N 37°45' E 121°28'38492113.4
2014-Oct-25 06:33N 31°21' E 121°26'824.7
2014-Oct-25 06:14N 31°17' E 121°34'811.4
2014-Oct-25 05:33N 31°21' E 121°26'38398508.6
2014-Oct-25 05:33N 37°44' E 121°25'3871873.1
2014-Oct-25 05:20N 31°17' E 121°34'7 8.8
2014-Oct-25 04:33N 31°22' E 121°28'3834333.7
2014-Oct-25 04:28N 37°44' E 121°27'3 3.0
2014-Oct-25 03:29N 37°46' E 121°25'3822560.8
2014-Oct-25 03:20N 31°24' E 121°31'384447.0
2014-Oct-25 02:28N 37°48' E 121°24'38451208.0
2014-Oct-25 02:28N 31°24' E 121°31'383418.0
2014-Oct-25 01:33N 37°48' E 121°28'38314085.0
2014-Oct-25 01:31N 31°24' E 121°31'383377.9
2014-Oct-25 00:30N 37°48' E 121°23'3803521.6
2014-Oct-25 00:24N 31°28' E 121°26'378175.7
2014-Oct-24 22:15N 37°46' E 121°09'3695922.7
2014-Oct-24 22:11N 31°37' E 121°15'4 6.4
2014-Oct-24 21:31N 31°40' E 121°12'5 5.4
2014-Oct-24 20:32N 31°43' E 121°07'4 4.0
2014-Oct-24 19:30N 31°45' E 121°02'0 0.1
2014-Oct-24 18:11N 31°46' E 121°02'0 0.1
2014-Oct-24 17:33N 31°46' E 121°02'0 0.1
2014-Oct-24 16:31N 31°46' E 121°02'39186.1
2014-Oct-24 16:19N 31°17' E 121°34'0 0.0
2014-Oct-24 15:29N 31°17' E 121°34'3852054.7
2014-Oct-24 15:17N 37°42' E 121°09'35529738.8
2014-Oct-24 15:17N 31°46' E 120°59'165226.3
2014-Oct-24 14:33N 34°29' E 120°27'19528095.2
2014-Oct-24 14:33N 37°40' E 121°15'8 8.4
2014-Oct-24 13:33N 37°43' E 121°25'1991325.0
2014-Oct-24 13:24N 34°29' E 120°27'152445.9
2014-Oct-24 13:04N 31°58' E 120°50'3 6.2
2014-Oct-24 12:33N 32°00' E 120°47'344247336.3
2014-Oct-24 12:33N 37°42' E 121°28'3 3.4
2014-Oct-24 11:32N 37°42' E 121°32'34546036.8
2014-Oct-24 11:32N 31°60' E 120°39'6 5.9
2014-Oct-24 10:33N 32°01' E 120°33'34682958.5
2014-Oct-24 10:33N 37°43' E 121°32'2011663.2
2014-Oct-24 10:26N 34°29' E 120°28'147168.2
2014-Oct-24 09:33N 32°02' E 120°27'34695711.5
2014-Oct-24 09:33N 37°44' E 121°28'3 3.4
2014-Oct-24 08:33N 37°44' E 121°24'34878305.2
2014-Oct-24 08:33N 31°60' E 120°23'2 1.7
2014-Oct-24 07:33N 31°59' E 120°21'34996577.5
2014-Oct-24 07:33N 37°44' E 121°19'3881773.0
2014-Oct-24 07:20N 31°17' E 121°34'7595.9
2014-Oct-24 06:33N 31°59' E 120°21'34896413.8
2014-Oct-24 06:33N 37°44' E 121°20'348349.4
2014-Oct-24 05:33N 31°59' E 120°22'3469500.7
2014-Oct-24 05:31N 37°42' E 121°12'346358.9
2014-Oct-24 04:33N 31°59' E 120°22'74535.1
2014-Oct-24 04:25N 31°18' E 121°34'7587.2
2014-Oct-24 03:33N 31°58' E 120°19'7 6.6
2014-Oct-24 02:33N 31°56' E 120°11'80178.8
2014-Oct-24 02:06N 31°18' E 121°34'86156.1
2014-Oct-24 01:33N 31°57' E 120°04'3488308.2
2014-Oct-24 01:30N 37°42' E 121°09'0 0.0
2014-Oct-24 00:33N 37°42' E 121°09'0 0.0
2014-Oct-23 23:33N 37°42' E 121°09'0 0.0
2014-Oct-23 22:12N 37°42' E 121°09'5 7.9
2014-Oct-23 21:32N 37°42' E 121°15'38434593.5
2014-Oct-23 21:31N 31°18' E 121°34'383397.2
2014-Oct-23 20:33N 37°41' E 121°19'3835560.9
2014-Oct-23 20:29N 31°18' E 121°34'382410.4
2014-Oct-23 19:33N 37°40' E 121°24'38229279.4
2014-Oct-23 19:32N 31°18' E 121°34'382387.0
2014-Oct-23 18:33N 37°40' E 121°24'3821367.3
2014-Oct-23 18:16N 31°18' E 121°34'383531.8
2014-Oct-23 17:33N 37°40' E 121°24'38320571.8
2014-Oct-23 17:32N 31°18' E 121°34'384390.8
2014-Oct-23 16:33N 37°41' E 121°20'3843097.7
2014-Oct-23 16:26N 31°18' E 121°34'0 0.0
2014-Oct-23 15:33N 31°18' E 121°34'3863461.0
2014-Oct-23 15:26N 37°43' E 121°16'386431.3
2014-Oct-23 14:33N 31°18' E 121°34'3858155.9
2014-Oct-23 14:30N 37°43' E 121°18'3 3.5
2014-Oct-23 13:32N 37°42' E 121°23'3855896.1
2014-Oct-23 13:28N 31°18' E 121°34'385418.8
2014-Oct-23 12:33N 37°42' E 121°27'3 3.2
2014-Oct-23 11:33N 37°42' E 121°31'1 0.6
2014-Oct-23 10:32N 37°42' E 121°31'3 3.3
2014-Oct-23 09:33N 37°39' E 121°31'1 1.2
2014-Oct-23 08:33N 37°40' E 121°31'383382.8
2014-Oct-23 07:33N 31°18' E 121°34'3831378274.1
2014-Oct-23 07:33N 37°40' E 121°31'5 5.3
2014-Oct-23 06:31N 37°46' E 121°30'38810920.4
2014-Oct-23 06:29N 31°18' E 121°34'388416.7
2014-Oct-23 05:33N 37°46' E 121°27'3 3.3
2014-Oct-23 04:33N 37°46' E 121°23'4 3.4
2014-Oct-23 03:27N 37°45' E 121°19'7 8.3
2014-Oct-23 02:33N 37°42' E 121°10'3871590.3
2014-Oct-23 02:19N 31°15' E 121°31'3 4.0
2014-Oct-23 01:28N 31°18' E 121°34'5 5.4
2014-Oct-23 00:31N 31°22' E 121°30'380270.1
2014-Oct-22 23:07N 37°42' E 121°09'0 0.0
2014-Oct-22 22:25N 37°42' E 121°09'38511538.3
2014-Oct-22 22:23N 31°18' E 121°34'0 0.0
2014-Oct-22 21:25N 31°18' E 121°34'38562939.3
2014-Oct-22 21:25N 37°42' E 121°09'385422.4
2014-Oct-22 20:30N 31°18' E 121°34'38510178.6
2014-Oct-22 20:28N 37°42' E 121°09'385409.2
2014-Oct-22 19:31N 31°18' E 121°34'3892350.1
2014-Oct-22 19:21N 37°46' E 121°16'389485.7
2014-Oct-22 18:33N 31°18' E 121°34'38923322.6
2014-Oct-22 18:32N 37°46' E 121°18'3 3.5
2014-Oct-22 17:33N 37°47' E 121°22'3892786.7
2014-Oct-22 17:25N 31°18' E 121°34'392455.3
2014-Oct-22 16:33N 37°49' E 121°26'365159.1
2014-Oct-22 14:16N 31°44' E 121°04'37337.9
2014-Oct-22 14:09N 31°18' E 121°34'0 0.0
2014-Oct-22 13:33N 31°18' E 121°34'37761.8
2014-Oct-22 13:30N 31°44' E 121°04'3736.5
2014-Oct-22 12:30N 31°18' E 121°34'0 0.0
2014-Oct-22 11:11N 31°18' E 121°34'0 0.0
2014-Oct-22 10:31N 31°18' E 121°34'52207.6
2014-Oct-22 10:16N 31°56' E 120°52'4 5.9
2014-Oct-22 09:31N 31°59' E 120°50'563421.1
2014-Oct-22 09:30N 31°18' E 121°34'396417.5
2014-Oct-22 08:33N 37°54' E 121°30'39611790.6
2014-Oct-22 08:31N 31°18' E 121°34'0 0.0
2014-Oct-22 07:33N 31°18' E 121°34'394337.6
2014-Oct-22 06:23N 37°52' E 121°30'3942377.7
2014-Oct-22 06:13N 31°18' E 121°34'0 0.0
2014-Oct-22 05:22N 31°18' E 121°34'0 0.0
2014-Oct-22 01:33N 31°18' E 121°34'390303.7
2014-Oct-22 00:16N 37°47' E 121°14'390536.5
2014-Oct-21 23:32N 31°18' E 121°34'38526161.3
2014-Oct-21 23:31N 37°42' E 121°10'385380.1
2014-Oct-21 22:31N 31°18' E 121°34'3855583.0
2014-Oct-21 22:26N 37°42' E 121°09'385428.5
2014-Oct-21 21:33N 31°18' E 121°34'0 0.0
2014-Oct-21 20:30N 31°18' E 121°34'0 0.1
2014-Oct-21 19:33N 31°18' E 121°34'0 0.0
2014-Oct-21 18:31N 31°18' E 121°34'0 0.0
2014-Oct-21 17:33N 31°18' E 121°34'0 0.0
2014-Oct-21 16:33N 31°18' E 121°34'0 0.0
2014-Oct-21 15:33N 31°18' E 121°34'5 4.7
2014-Oct-21 14:32N 31°15' E 121°29'51011.5
2014-Oct-21 14:32N 31°18' E 121°34'0 0.0
2014-Oct-21 13:33N 31°18' E 121°34'0 3.4
2014-Oct-21 13:27N 31°17' E 121°34'4 4.1
2014-Oct-21 12:33N 31°21' E 121°32'384.8
2014-Oct-21 12:31N 31°18' E 121°34'6 6.1
2014-Oct-21 11:32N 31°23' E 121°30'6645.9
2014-Oct-21 11:32N 31°18' E 121°34'6 6.6
2014-Oct-21 10:33N 31°24' E 121°31'690.6
2014-Oct-21 10:29N 31°18' E 121°34'7 8.0
2014-Oct-21 09:33N 31°25' E 121°31'7103.9
2014-Oct-21 09:29N 31°18' E 121°34'7076.2
2014-Oct-21 08:33N 31°58' E 120°27'703823.3
2014-Oct-21 08:32N 31°18' E 121°34'7070.5
2014-Oct-21 07:33N 32°02' E 120°31'701186.1
2014-Oct-21 07:30N 31°18' E 121°34'0 0.1
2014-Oct-21 06:33N 31°18' E 121°34'634693.1
2014-Oct-21 06:32N 32°00' E 120°40'6363.4
2014-Oct-21 05:33N 31°18' E 121°34'0 0.1
2014-Oct-21 04:33N 31°18' E 121°34'0 0.0
2014-Oct-21 03:33N 31°18' E 121°34'0 0.0
2014-Oct-21 02:27N 31°18' E 121°34'0 0.0
2014-Oct-21 01:33N 31°18' E 121°34'62383.5
2014-Oct-21 01:23N 32°02' E 120°43'6271.3
2014-Oct-21 00:31N 31°18' E 121°34'1349.1
2014-Oct-21 00:15N 31°29' E 121°27'1317.7
2014-Oct-20 23:32N 31°18' E 121°34'81540.6
2014-Oct-20 23:31N 31°25' E 121°31'7 6.5
2014-Oct-20 22:30N 31°19' E 121°34'2 3.8
2014-Oct-20 22:05N 31°18' E 121°34'0 0.0
2014-Oct-20 20:10N 31°18' E 121°34'0 0.0
2014-Oct-20 18:28N 31°18' E 121°34'0 0.0
2014-Oct-20 17:04N 31°18' E 121°34'0 0.1
2014-Oct-20 16:32N 31°18' E 121°34'0 0.0
2014-Oct-20 15:32N 31°18' E 121°34'62731.5
2014-Oct-20 15:27N 32°04' E 120°45'6256.7
2014-Oct-20 14:22N 31°18' E 121°34'62386.0
2014-Oct-20 14:12N 32°04' E 120°45'6295.3
2014-Oct-20 13:33N 31°18' E 121°34'0 0.0
2014-Oct-20 12:22N 31°18' E 121°34'0 0.1
2014-Oct-20 11:33N 31°18' E 121°34'0 0.0
2014-Oct-20 10:14N 31°18' E 121°34'1012.0
2014-Oct-20 09:24N 31°27' E 121°30'1037.8
2014-Oct-20 09:08N 31°18' E 121°34'610.2
2014-Oct-20 08:31N 31°23' E 121°30'4223359.3
2014-Oct-20 08:24N 24°47' E 118°46'417207.9
2014-Oct-20 06:23N 31°17' E 121°34'0 0.0
2014-Oct-20 04:12N 31°17' E 121°34'0 0.0
2014-Oct-20 03:22N 31°17' E 121°34'0 0.0
2014-Oct-20 02:32N 31°17' E 121°34'0 0.0
2014-Oct-20 01:16N 31°17' E 121°34'0 0.0
2014-Oct-20 00:08N 31°17' E 121°34'1220.4
2014-Oct-19 23:33N 31°28' E 121°28'5 4.7
2014-Oct-19 22:33N 31°23' E 121°30'7 6.7
2014-Oct-19 21:33N 31°17' E 121°34'386120.4
2014-Oct-19 18:21N 37°43' E 121°14'2 2.1
2014-Oct-19 17:33N 37°42' E 121°15'3451867.3
2014-Oct-19 17:22N 31°60' E 120°23'344423.3
2014-Oct-19 16:33N 37°41' E 121°19'34143819.5
2014-Oct-19 16:33N 32°02' E 120°28'340339.8
2014-Oct-19 15:33N 37°40' E 121°24'4 3.5
2014-Oct-19 14:33N 37°39' E 121°28'3 3.3
2014-Oct-19 13:32N 37°40' E 121°32'2 2.2
2014-Oct-19 12:33N 37°42' E 121°31'4 4.2
2014-Oct-19 11:31N 37°46' E 121°28'0 0.4
2014-Oct-19 10:33N 37°46' E 121°28'9 8.8
2014-Oct-19 09:33N 37°39' E 121°21'9 9.3
2014-Oct-19 08:33N 37°42' E 121°10'3851433.1
2014-Oct-19 08:17N 31°17' E 121°34'385470.8
2014-Oct-19 07:28N 37°42' E 121°09'385420.9
2014-Oct-19 06:33N 31°17' E 121°34'2 2.4
2014-Oct-19 05:33N 31°19' E 121°33'5 4.7
2014-Oct-19 04:33N 31°23' E 121°30'6 6.0
2014-Oct-19 03:29N 31°22' E 121°38'3436.8
2014-Oct-19 02:33N 31°44' E 121°06'35884.3
2014-Oct-18 22:19N 37°42' E 121°09'0 0.0
2014-Oct-18 21:18N 37°42' E 121°09'5 6.0
2014-Oct-18 20:32N 37°42' E 121°15'3 3.2
2014-Oct-18 19:33N 37°41' E 121°18'3 3.3
2014-Oct-18 18:33N 37°41' E 121°22'3 3.3
2014-Oct-18 17:33N 37°40' E 121°26'3 2.8
2014-Oct-18 16:33N 37°41' E 121°29'4 3.9
2014-Oct-18 15:32N 37°45' E 121°29'6 5.7
2014-Oct-18 14:33N 37°51' E 121°28'3 2.8
2014-Oct-18 13:30N 37°49' E 121°31'3 3.5
2014-Oct-18 12:31N 37°48' E 121°35'1 0.7
2014-Oct-18 11:33N 37°48' E 121°35'3936905.3
2014-Oct-18 11:30N 31°14' E 121°29'393412.9
2014-Oct-18 10:33N 37°48' E 121°30'3921577.0
2014-Oct-18 10:18N 31°15' E 121°33'392528.0
2014-Oct-18 09:33N 37°48' E 121°25'3911021.4
2014-Oct-18 09:10N 31°17' E 121°34'390623.4
2014-Oct-18 08:33N 37°47' E 121°18'9 9.2
2014-Oct-18 07:33N 37°42' E 121°09'3851713.5
2014-Oct-18 07:19N 31°17' E 121°34'4 0.5
2014-Oct-18 00:05N 31°15' E 121°31'388148.7
2014-Oct-17 21:29N 37°42' E 121°10'6 6.6
2014-Oct-17 20:30N 37°45' E 121°18'3 3.6
2014-Oct-17 19:33N 37°44' E 121°22'2 1.5
2014-Oct-17 18:33N 37°42' E 121°23'3 3.5
2014-Oct-17 17:33N 37°41' E 121°27'2 2.4
2014-Oct-17 16:33N 37°41' E 121°24'2 1.7
2014-Oct-17 15:33N 37°41' E 121°26'1 0.5
2014-Oct-17 14:33N 37°40' E 121°27'1 0.5
2014-Oct-17 13:34N 37°40' E 121°27'3 2.8
2014-Oct-17 12:33N 37°40' E 121°24'3 3.3
2014-Oct-17 11:34N 37°38' E 121°27'1 0.7
2014-Oct-17 10:33N 37°38' E 121°28'7 6.9
2014-Oct-17 09:34N 37°40' E 121°20'9 8.1
2014-Oct-17 08:27N 37°42' E 121°09'34048.4
2014-Oct-17 01:26N 32°02' E 120°44'34053.5
2014-Oct-16 19:04N 37°42' E 121°09'3 5.0
2014-Oct-16 18:27N 37°43' E 121°12'3 3.1
2014-Oct-16 17:33N 37°43' E 121°15'3 3.0
2014-Oct-16 16:33N 37°42' E 121°19'3 3.1
2014-Oct-16 15:33N 37°41' E 121°23'3 3.0
2014-Oct-16 14:33N 37°40' E 121°26'3 3.1
2014-Oct-16 13:33N 37°40' E 121°30'3 3.1
2014-Oct-16 12:33N 37°39' E 121°34'1 1.2
2014-Oct-16 11:33N 37°39' E 121°33'4 4.0
2014-Oct-16 10:33N 37°39' E 121°28'47215873.9
2014-Oct-16 10:31N 29°48' E 122°05'475477.7
2014-Oct-16 09:32N 37°42' E 121°23'3611183.7
2014-Oct-16 09:13N 31°41' E 121°11'361538.8
2014-Oct-16 08:33N 37°42' E 121°11'4655309.4
2014-Oct-16 08:28N 29°59' E 122°02'465477.7
2014-Oct-16 07:30N 37°42' E 121°09'0 0.0
2014-Oct-16 06:15N 37°42' E 121°09'0 0.0
2014-Oct-16 05:12N 37°42' E 121°09'0 0.0
2014-Oct-16 04:33N 37°42' E 121°09'  

Dump ship's entire track history